Thunder radar more information blitzortung!


Radar de pluja more information rain snow radar


Visita la nostra xarxa de llocs de meteo:

Template documentation
and downloads

And another site



No particular awareness of the weather is required.    There are no Weather-warnings

Pagina Historial Weather Underground text

Diari Resum Juliol 24, 2017 Unitats:  Mètric    Imperial   Tant
« Previous Dia
SegĂźent Dia »
Diari Setmana Mensual Anual Personalitzada
  Maxima: Minima: Media:
Temperatura: -17.8 °C -8.4 °C -3.6 °C
Punt de rosada: -17.8 °C -11.2 °C -8.9 °C
Humitat: Humidity % 31 % 58 %
Wind Speed: 0 km/h 0 km/h 14.3 km/h
RĂ fegues de vent: 0 km/h - -
Vent:- - SSE
Pression baro: 0 hPa 34222.3 hPa -
Precipitacions: 0 mm    
Historical Graphs
 
 
Dades de taula per Juliol 24, 2017
Temps Temperatura Punt de rosada Pression baro Vent Wind Speed RĂ fegues de vent Humitat Rainfall Rate (Hourly)
-17.8 °C -17.8 °C 0 hPa Calm     Humidity % 0 mm
00:03 -7.2 °C -8.2 °C 34395 hPa Calm     90 % 0 mm
00:05 -8.2 °C -8.7 °C 34327.3 hPa WSW 2.6 km/h 5.1 km/h 94 % 0 mm
00:15 -8.2 °C -8.8 °C 34327.3 hPa SW 5.1 km/h 7.7 km/h 93 % 0 mm
00:25 -8.3 °C -8.9 °C 34327.3 hPa SW 5.1 km/h 7.7 km/h 93 % 0 mm
00:35 -8.3 °C -8.9 °C 34327.3 hPa SW 5.1 km/h 7.7 km/h 93 % 0 mm
00:45 -8.3 °C -8.9 °C 34327.3 hPa WSW 5.1 km/h 7.7 km/h 93 % 0 mm
00:55 -8.3 °C -8.9 °C 34327.3 hPa WSW 2.6 km/h 5.1 km/h 93 % 0 mm
01:05 -8.3 °C -8.9 °C 34327.3 hPa SW 2.6 km/h 7.7 km/h 94 % 0 mm
01:15 -8.3 °C -8.9 °C 34327.3 hPa Calm   5.1 km/h 94 % 0 mm
01:25 -8.3 °C -8.9 °C 34327.3 hPa Calm     94 % 0 mm
01:35 -8.4 °C -8.8 °C 34327.3 hPa SW 5.1 km/h 7.7 km/h 95 % 0 mm
01:45 -8.4 °C -8.9 °C 34327.3 hPa Calm   7.7 km/h 95 % 0 mm
01:55 -8.4 °C -8.9 °C 34327.3 hPa Calm     95 % 0 mm
02:05 -8.4 °C -8.8 °C 34293.4 hPa Calm     95 % 0 mm
02:15 -8.2 °C -8.7 °C 34293.4 hPa Calm   2.6 km/h 95 % 0 mm
02:25 -8.2 °C -8.6 °C 34327.3 hPa Calm   2.6 km/h 95 % 0 mm
02:35 -8.1 °C -8.6 °C 34327.3 hPa ENE 2.6 km/h 2.6 km/h 95 % 0 mm
02:45 -8 °C -8.4 °C 34327.3 hPa Calm     95 % 0 mm
02:55 -7.8 °C -8.4 °C 34327.3 hPa Calm   5.1 km/h 93 % 0 mm
03:05 -7.5 °C -8.2 °C 34327.3 hPa Calm   2.6 km/h 92 % 0 mm
03:15 -7.2 °C -8.1 °C 34327.3 hPa NE 2.6 km/h 2.6 km/h 90 % 0 mm
03:25 -6.6 °C -7.8 °C 34327.3 hPa ENE 5.1 km/h 5.1 km/h 87 % 0 mm
03:35 -6.2 °C -8 °C 34327.3 hPa ENE 5.1 km/h 7.7 km/h 82 % 0 mm
03:45 -6.1 °C -7.9 °C 34327.3 hPa NE 2.6 km/h 5.1 km/h 81 % 0 mm
03:55 -6.1 °C -8.3 °C 34327.3 hPa WSW 5.1 km/h 10.3 km/h 78 % 0 mm
04:05 -6 °C -8.4 °C 34293.4 hPa WSW 5.1 km/h 7.7 km/h 76 % 0 mm
04:15 -5.7 °C -8.4 °C 34293.4 hPa WSW 2.6 km/h 5.1 km/h 74 % 0 mm
04:25 -5.1 °C -7.9 °C 34293.4 hPa West 2.6 km/h 7.7 km/h 73 % 0 mm
04:35 -5.1 °C -8.1 °C 34327.3 hPa WNW 7.7 km/h 12.9 km/h 72 % 0 mm
04:45 -4.9 °C -8.3 °C 34327.3 hPa WNW 5.1 km/h 12.9 km/h 69 % 0 mm
04:55 -4.6 °C -8.4 °C 34327.3 hPa NNW 7.7 km/h 10.3 km/h 66 % 0 mm
05:00 -4.6 °C -8 °C 34327.3 hPa North 5.1 km/h 7.7 km/h 68 % 0 mm
10:04 -4.4 °C -8.2 °C 34327.3 hPa SSW 6 km/h 6 km/h 66 % 0 mm
10:09 -4.3 °C -8.2 °C 34327.3 hPa NW 9 km/h 9 km/h 65 % 0 mm
10:14 -4.2 °C -8.1 °C 34327.3 hPa WNW 6.3 km/h 6.3 km/h 65 % 0 mm
10:19 -3.9 °C -8 °C 34327.3 hPa West 7.6 km/h 7.6 km/h 64 % 0 mm
10:24 -4.1 °C -8.3 °C 34327.3 hPa West 20.9 km/h 20.9 km/h 63 % 0 mm
10:29 -4.1 °C -8.2 °C 34327.3 hPa West 11.9 km/h 11.9 km/h 63 % 0 mm
10:34 -3.9 °C -8.3 °C 34327.3 hPa West 9 km/h 9 km/h 62 % 0 mm
10:39 -3.9 °C -8.3 °C 34327.3 hPa WSW 11.9 km/h 11.9 km/h 62 % 0 mm
10:44 -4.1 °C -8.8 °C 34327.3 hPa North 23.8 km/h 23.8 km/h 59 % 0 mm
10:49 -3.8 °C -8.7 °C 34327.3 hPa WNW 17.9 km/h 17.9 km/h 58 % 0 mm
10:54 -3.7 °C -8.8 °C 34327.3 hPa West 23.8 km/h 23.8 km/h 57 % 0 mm
10:59 -3.8 °C -9.2 °C 34327.3 hPa West 20.9 km/h 20.9 km/h 55 % 0 mm
11:04 -3.6 °C -8.8 °C 34327.3 hPa SSW 11.9 km/h 11.9 km/h 56 % 0 mm
11:09 -3.4 °C -8.7 °C 34327.3 hPa West 11.9 km/h 11.9 km/h 56 % 0 mm
11:14 -3.2 °C -8.7 °C 34327.3 hPa WNW 9 km/h 9.3 km/h 55 % 0 mm
11:19 -3.1 °C -8.7 °C 34327.3 hPa WSW 11.9 km/h 11.9 km/h 54 % 0 mm
11:24 -3 °C -8.6 °C 34327.3 hPa SW 9.3 km/h 9.3 km/h 54 % 0 mm
11:29 -2.8 °C -8.6 °C 34327.3 hPa West 16.6 km/h 16.6 km/h 53 % 0 mm
11:34 -2.9 °C -8.8 °C 34327.3 hPa SW 17.9 km/h 17.9 km/h 52 % 0 mm
11:39 -2.8 °C -8.9 °C 34327.3 hPa WSW 15 km/h 15 km/h 51 % 0 mm
11:44 -2.7 °C -8.8 °C 34327.3 hPa SW 12.2 km/h 12.2 km/h 51 % 0 mm
11:49 -2.7 °C -9.2 °C 34327.3 hPa West 29.8 km/h 29.8 km/h 49 % 0 mm
11:54 -2.6 °C -9.1 °C 34327.3 hPa NNW 38.8 km/h 38.8 km/h 49 % 0 mm
11:59 -2.6 °C -9.1 °C 34327.3 hPa SW 15 km/h 15 km/h 49 % 0 mm
12:04 -2.4 °C -8.9 °C 34327.3 hPa WSW 38.8 km/h 38.8 km/h 49 % 0 mm
12:09 -2.3 °C -8.8 °C 34327.3 hPa WNW 23.8 km/h 23.8 km/h 49 % 0 mm
12:14 -2.2 °C -8.9 °C 34327.3 hPa SSW 15 km/h 15 km/h 48 % 0 mm
12:19 -2.1 °C -8.8 °C 34327.3 hPa SW 23.8 km/h 23.8 km/h 48 % 0 mm
12:24 -1.8 °C -8.3 °C 34327.3 hPa SW 9 km/h 9 km/h 49 % 0 mm
12:29 -1.6 °C -8.6 °C 34327.3 hPa West 12.7 km/h 12.7 km/h 47 % 0 mm
12:34 -1.6 °C -8.5 °C 34327.3 hPa West 9 km/h 9 km/h 47 % 0 mm
12:39 -1.4 °C -8.3 °C 34327.3 hPa WNW 8.5 km/h 8.5 km/h 47 % 0 mm
12:44 -1.4 °C -8.5 °C 34327.3 hPa SW 20.9 km/h 20.9 km/h 46 % 0 mm
12:49 -1.4 °C -8.5 °C 34327.3 hPa SW 9.3 km/h 9.8 km/h 46 % 0 mm
12:54 -1.4 °C -8.7 °C 34327.3 hPa SW 17.9 km/h 17.9 km/h 45 % 0 mm
12:59 -1.3 °C -8.8 °C 34327.3 hPa WSW 20.9 km/h 20.9 km/h 44 % 0 mm
13:04 -1.3 °C -9 °C 34293.4 hPa WSW 23.8 km/h 23.8 km/h 43 % 0 mm
13:09 -0.9 °C -8.7 °C 34293.4 hPa West 15 km/h 15 km/h 43 % 0 mm
13:14 -1.1 °C -9.1 °C 34293.4 hPa SW 26.9 km/h 26.9 km/h 42 % 0 mm
13:19 -0.9 °C -8.9 °C 34293.4 hPa SW 17.9 km/h 17.9 km/h 42 % 0 mm
13:24 -0.7 °C -8.7 °C 34293.4 hPa SW 9.8 km/h 9.8 km/h 42 % 0 mm
13:29 -0.8 °C -8.8 °C 34293.4 hPa West 15.6 km/h 15.6 km/h 42 % 0 mm
13:34 -0.9 °C -9.1 °C 34293.4 hPa West 11.9 km/h 11.9 km/h 41 % 0 mm
13:39 -0.9 °C -9.3 °C 34293.4 hPa West 15 km/h 15 km/h 40 % 0 mm
13:44 -0.8 °C -9.2 °C 34293.4 hPa West 15 km/h 15 km/h 40 % 0 mm
13:49 -0.4 °C -8.9 °C 34256.2 hPa West 17.9 km/h 17.9 km/h 40 % 0 mm
13:54 -0.6 °C -9.2 °C 34256.2 hPa North 15 km/h 15 km/h 39 % 0 mm
13:59 -0.6 °C -9.3 °C 34256.2 hPa WSW 20.9 km/h 20.9 km/h 39 % 0 mm
14:04 -0.5 °C -9.2 °C 34293.4 hPa SW 17.9 km/h 17.9 km/h 39 % 0 mm
14:09 -0.3 °C -9.2 °C 34293.4 hPa WSW 9 km/h 9 km/h 38 % 0 mm
14:14 -0.5 °C -9.6 °C 34293.4 hPa WSW 17.9 km/h 17.9 km/h 37 % 0 mm
14:19 -0.1 °C -9.1 °C 34256.2 hPa WNW 9.3 km/h 9.3 km/h 38 % 0 mm
14:24 0.1 °C -8.6 °C 34256.2 hPa SW 9.8 km/h 9.8 km/h 39 % 0 mm
14:29 0 °C -8.9 °C 34256.2 hPa West 15 km/h 15 km/h 38 % 0 mm
14:34 -0.1 °C -9 °C 34256.2 hPa WSW 15 km/h 15 km/h 38 % 0 mm
14:39 -0.3 °C -9.4 °C 34256.2 hPa SW 11.9 km/h 11.9 km/h 37 % 0 mm
14:44 -0.1 °C -9.5 °C 34256.2 hPa WNW 9 km/h 9 km/h 36 % 0 mm
14:49 0.3 °C -9.2 °C 34256.2 hPa WSW 15.6 km/h 15.6 km/h 36 % 0 mm
14:54 0.4 °C -9.3 °C 34256.2 hPa South 15 km/h 15 km/h 35 % 0 mm
14:59 0.7 °C -9.1 °C 34256.2 hPa WSW 15 km/h 15 km/h 35 % 0 mm
15:04 0.5 °C -9.2 °C 34222.3 hPa South 9 km/h 9 km/h 35 % 0 mm
15:10 0.7 °C -9.6 °C 34222.3 hPa West 15 km/h 15 km/h 33 % 0 mm
15:15 1.1 °C -8.7 °C 34222.3 hPa SSW 9 km/h 9 km/h 35 % 0 mm
15:20 1 °C -9.1 °C 34256.2 hPa West 11.9 km/h 11.9 km/h 34 % 0 mm
15:25 0.8 °C -9.4 °C 34256.2 hPa WSW 11.9 km/h 11.9 km/h 33 % 0 mm
15:30 1.1 °C -9.2 °C 34256.2 hPa SW 6 km/h 8.5 km/h 33 % 0 mm
15:32 1.1 °C -9.2 °C 34256.2 hPa WSW 15 km/h 15 km/h 33 % 0 mm
15:37 0.4 °C -10.4 °C 34256.2 hPa ESE 11.9 km/h 11.9 km/h 31 % 0 mm
15:42 0.4 °C -10.1 °C 34256.2 hPa West 15 km/h 15 km/h 32 % 0 mm
15:47 0.6 °C -9.9 °C 34256.2 hPa SSE 20.9 km/h 20.9 km/h 32 % 0 mm
15:52 -0.6 °C -10.2 °C 34256.2 hPa ESE 20.9 km/h 20.9 km/h 35 % 0 mm
15:57 -0.9 °C -10 °C 34256.2 hPa ENE 20.9 km/h 20.9 km/h 37 % 0 mm
16:02 -1.1 °C -9.7 °C 34256.2 hPa NE 23.8 km/h 23.8 km/h 39 % 0 mm
16:07 -1 °C -9.6 °C 34256.2 hPa East 23.8 km/h 23.8 km/h 39 % 0 mm
16:12 -1.2 °C -9.6 °C 34256.2 hPa East 31.9 km/h 31.9 km/h 40 % 0 mm
16:17 -1.4 °C -9.8 °C 34256.2 hPa ESE 35.7 km/h 35.7 km/h 40 % 0 mm
16:22 -1.5 °C -9.6 °C 34256.2 hPa ENE 26.9 km/h 26.9 km/h 41 % 0 mm
16:27 -1.4 °C -9.3 °C 34256.2 hPa ENE 26.9 km/h 26.9 km/h 42 % 0 mm
16:32 -1.2 °C -9.2 °C 34256.2 hPa NNE 17.9 km/h 17.9 km/h 42 % 0 mm
16:37 -1.2 °C -9.1 °C 34256.2 hPa East 20.9 km/h 20.9 km/h 42 % 0 mm
16:42 -1.2 °C -9.1 °C 34256.2 hPa ESE 32.8 km/h 32.8 km/h 42 % 0 mm
16:43 -1.2 °C -9.2 °C 34256.2 hPa ESE 17.9 km/h 17.9 km/h 42 % 0 mm
16:48 -1.3 °C -9 °C 34256.2 hPa ESE 17.9 km/h 17.9 km/h 43 % 0 mm
16:53 -1.3 °C -9 °C 34222.3 hPa ESE 20.9 km/h 20.9 km/h 43 % 0 mm
16:58 -1.4 °C -9.2 °C 34222.3 hPa ESE 29.8 km/h 29.8 km/h 43 % 0 mm
17:03 -1.4 °C -9.2 °C 34222.3 hPa ESE 26.9 km/h 26.9 km/h 43 % 0 mm
17:08 -1.4 °C -9.2 °C 34222.3 hPa ESE 23.8 km/h 23.8 km/h 43 % 0 mm
17:13 -1.4 °C -8.9 °C 34222.3 hPa ESE 29.8 km/h 29.8 km/h 44 % 0 mm
17:18 -1.5 °C -9 °C 34222.3 hPa ESE 26.9 km/h 26.9 km/h 44 % 0 mm
17:23 -1.5 °C -9 °C 34222.3 hPa ENE 29.8 km/h 29.8 km/h 44 % 0 mm
17:28 -1.6 °C -9.1 °C 34222.3 hPa East 26.9 km/h 26.9 km/h 44 % 0 mm
17:33 -1.7 °C -9.2 °C 34222.3 hPa ESE 35.7 km/h 35.7 km/h 44 % 0 mm
17:38 -1.7 °C -9 °C 34222.3 hPa East 30.6 km/h 30.6 km/h 45 % 0 mm
17:43 -1.9 °C -9 °C 34222.3 hPa SE 26.9 km/h 26.9 km/h 46 % 0 mm
17:48 -1.9 °C -9 °C 34222.3 hPa NE 17.9 km/h 17.9 km/h 46 % 0 mm
17:53 -1.9 °C -9 °C 34222.3 hPa SE 22 km/h 22 km/h 46 % 0 mm
17:58 -2.1 °C -9.1 °C 34222.3 hPa NE 37 km/h 37 km/h 46 % 0 mm
18:03 -2.1 °C -9 °C 34222.3 hPa NE 29.8 km/h 29.8 km/h 47 % 0 mm
18:08 -2.2 °C -9.1 °C 34222.3 hPa ESE 20.9 km/h 20.9 km/h 47 % 0 mm
18:13 -2.2 °C -9.1 °C 34222.3 hPa East 17.9 km/h 17.9 km/h 47 % 0 mm
18:18 -2.3 °C -9.1 °C 34222.3 hPa ESE 32.8 km/h 32.8 km/h 47 % 0 mm
18:23 -2.3 °C -9.1 °C 34222.3 hPa SSE 35.7 km/h 35.7 km/h 47 % 0 mm
18:28 -2.3 °C -9.1 °C 34222.3 hPa ESE 17.9 km/h 17.9 km/h 47 % 0 mm
18:33 -2.3 °C -9.2 °C 34222.3 hPa East 20.9 km/h 20.9 km/h 47 % 0 mm
18:38 -2.5 °C -9.2 °C 34256.2 hPa ENE 20.9 km/h 20.9 km/h 48 % 0 mm
18:43 -2.6 °C -9.1 °C 34256.2 hPa East 22 km/h 22 km/h 49 % 0 mm
18:48 -2.7 °C -9.1 °C 34256.2 hPa ENE 17.9 km/h 17.9 km/h 49 % 0 mm
18:53 -2.7 °C -9.2 °C 34222.3 hPa NNE 15.6 km/h 15.6 km/h 49 % 0 mm
18:58 -2.7 °C -9 °C 34222.3 hPa ENE 20.9 km/h 20.9 km/h 50 % 0 mm
19:03 -2.8 °C -9.2 °C 34222.3 hPa ESE 26.9 km/h 26.9 km/h 49 % 0 mm
19:08 -2.9 °C -9 °C 34222.3 hPa NNE 23.8 km/h 23.8 km/h 51 % 0 mm
19:13 -2.9 °C -9.2 °C 34222.3 hPa NNE 17.9 km/h 17.9 km/h 50 % 0 mm
19:18 -2.9 °C -9 °C 34222.3 hPa ENE 17.9 km/h 17.9 km/h 51 % 0 mm
19:23 -2.9 °C -9 °C 34256.2 hPa ENE 9.3 km/h 9.3 km/h 51 % 0 mm
19:28 -2.9 °C -9.1 °C 34256.2 hPa ESE 15 km/h 15 km/h 51 % 0 mm
19:33 -2.9 °C -9.1 °C 34256.2 hPa ESE 24.3 km/h 24.3 km/h 51 % 0 mm
19:38 -3.1 °C -9.2 °C 34256.2 hPa East 20.9 km/h 20.9 km/h 51 % 0 mm
19:43 -3.1 °C -9.2 °C 34256.2 hPa NE 20.9 km/h 20.9 km/h 51 % 0 mm
19:48 -3.2 °C -9.3 °C 34256.2 hPa East 19.6 km/h 19.6 km/h 51 % 0 mm
19:53 -3.3 °C -9.2 °C 34256.2 hPa ENE 15.6 km/h 15.6 km/h 52 % 0 mm
19:58 -3.4 °C -9.3 °C 34256.2 hPa East 15 km/h 15 km/h 52 % 0 mm
20:03 -3.5 °C -9.2 °C 34256.2 hPa East 23.8 km/h 23.8 km/h 53 % 0 mm
20:08 -3.6 °C -9.3 °C 34256.2 hPa ESE 15 km/h 15 km/h 53 % 0 mm
20:13 -3.7 °C -9.2 °C 34256.2 hPa NE 20.9 km/h 20.9 km/h 54 % 0 mm
20:18 -3.7 °C -9.3 °C 34256.2 hPa ENE 17.9 km/h 17.9 km/h 54 % 0 mm
20:23 -3.7 °C -9.3 °C 34222.3 hPa ESE 15 km/h 15 km/h 54 % 0 mm
20:28 -3.8 °C -9.3 °C 34222.3 hPa East 23.8 km/h 23.8 km/h 54 % 0 mm
20:33 -3.8 °C -9.2 °C 34222.3 hPa ENE 9 km/h 9 km/h 55 % 0 mm
20:38 -3.8 °C -9.2 °C 34256.2 hPa ESE 9.3 km/h 9.3 km/h 55 % 0 mm
20:43 -3.8 °C -9.2 °C 34256.2 hPa ESE 16.6 km/h 16.6 km/h 55 % 0 mm
20:48 -3.8 °C -9.1 °C 34256.2 hPa East 11.9 km/h 11.9 km/h 56 % 0 mm
20:53 -3.9 °C -9 °C 34256.2 hPa East 20.9 km/h 20.9 km/h 57 % 0 mm
20:58 -4 °C -9.1 °C 34256.2 hPa East 9 km/h 9 km/h 57 % 0 mm
21:03 -4.1 °C -9.1 °C 34256.2 hPa ESE 9 km/h 9 km/h 57 % 0 mm
21:08 -4.1 °C -9.2 °C 34293.4 hPa NE 15 km/h 15 km/h 57 % 0 mm
21:13 -4.2 °C -9.2 °C 34293.4 hPa ENE 15 km/h 15 km/h 57 % 0 mm
21:15 -5.7 °C -8.1 °C 34327.3 hPa NW 2.6 km/h 5.1 km/h 76 % 0 mm
21:18 -4.2 °C -9.3 °C 34293.4 hPa ESE 11.9 km/h 11.9 km/h 57 % 0 mm
21:23 -4.3 °C -9.3 °C 34293.4 hPa East 17.9 km/h 17.9 km/h 57 % 0 mm
21:25 -5.7 °C -8 °C 34327.3 hPa Calm   5.1 km/h 77 % 0 mm
21:28 -4.3 °C -9.1 °C 34293.4 hPa ESE 17.9 km/h 17.9 km/h 59 % 0 mm
21:33 -4.4 °C -9.1 °C 34293.4 hPa NNE 9 km/h 9.3 km/h 59 % 0 mm
21:35 -5.7 °C -8 °C 34327.3 hPa WSW 2.6 km/h 5.1 km/h 77 % 0 mm
21:38 -4.4 °C -9 °C 34293.4 hPa East 15 km/h 15 km/h 60 % 0 mm
21:43 -4.4 °C -8.7 °C 34293.4 hPa ESE 20.9 km/h 20.9 km/h 62 % 0 mm
21:45 -5.7 °C -8 °C 34327.3 hPa WSW 2.6 km/h 5.1 km/h 77 % 0 mm
21:48 -4.5 °C -8.4 °C 34293.4 hPa NE 31.4 km/h 31.4 km/h 65 % 0 mm
21:53 -4.6 °C -8.5 °C 34327.3 hPa NNE 15 km/h 15 km/h 65 % 0 mm
21:55 -5.7 °C -7.9 °C 34327.3 hPa WSW 2.6 km/h 5.1 km/h 78 % 0 mm
21:58 -4.6 °C -8.4 °C 34327.3 hPa East 11.9 km/h 11.9 km/h 66 % 0 mm
22:03 -4.7 °C -8.2 °C 34327.3 hPa ESE 20.9 km/h 20.9 km/h 68 % 0 mm
22:05 -5.7 °C -8.1 °C 34327.3 hPa WSW 5.1 km/h 7.7 km/h 77 % 0 mm
22:08 -4.7 °C -8.1 °C 34327.3 hPa ESE 20.9 km/h 20.9 km/h 69 % 0 mm
22:13 -4.8 °C -8.1 °C 34327.3 hPa East 15 km/h 15 km/h 69 % 0 mm
22:15 -5.8 °C -8.3 °C 34327.3 hPa West 5.1 km/h 10.3 km/h 76 % 0 mm
22:18 -4.8 °C -7.9 °C 34327.3 hPa ESE 20.9 km/h 20.9 km/h 71 % 0 mm
22:23 -4.9 °C -7.9 °C 34327.3 hPa NE 15 km/h 15 km/h 71 % 0 mm
22:25 -5.8 °C -8.9 °C 34327.3 hPa West 7.7 km/h 7.7 km/h 71 % 0 mm
22:28 -4.9 °C -7.9 °C 34327.3 hPa ESE 15 km/h 15 km/h 71 % 0 mm
22:33 -4.9 °C -8 °C 34327.3 hPa ENE 11.9 km/h 11.9 km/h 71 % 0 mm
22:35 -5.8 °C -9.4 °C 34361.1 hPa West 7.7 km/h 10.3 km/h 66 % 0 mm
22:38 -4.9 °C -8 °C 34327.3 hPa SE 12.2 km/h 12.2 km/h 71 % 0 mm
22:43 -5 °C -7.9 °C 34327.3 hPa East 7.6 km/h 7.6 km/h 72 % 0 mm
22:45 -5.8 °C -9.6 °C 34361.1 hPa WSW 5.1 km/h 7.7 km/h 65 % 0 mm
22:48 -5 °C -7.8 °C 34327.3 hPa ENE 16.1 km/h 16.1 km/h 73 % 0 mm
22:53 -5 °C -7.8 °C 34327.3 hPa East 11.9 km/h 11.9 km/h 73 % 0 mm
22:55 -5.9 °C -9.9 °C 34327.3 hPa West 5.1 km/h 10.3 km/h 63 % 0 mm
22:58 -5 °C -7.8 °C 34327.3 hPa East 12.7 km/h 12.7 km/h 73 % 0 mm
23:03 -5.1 °C -7.9 °C 34327.3 hPa ESE 15 km/h 15 km/h 73 % 0 mm
23:05 -6 °C -10.3 °C 34327.3 hPa West 5.1 km/h 7.7 km/h 61 % 0 mm
23:08 -5.1 °C -7.8 °C 34327.3 hPa East 12.7 km/h 12.7 km/h 74 % 0 mm
23:13 -5.1 °C -7.8 °C 34327.3 hPa ESE 9 km/h 9 km/h 74 % 0 mm
23:15 -6.1 °C -10.6 °C 34327.3 hPa West 2.6 km/h 5.1 km/h 60 % 0 mm
23:18 -5.1 °C -7.8 °C 34327.3 hPa ENE 15 km/h 15 km/h 74 % 0 mm
23:23 -5.1 °C -7.8 °C 34327.3 hPa North 15 km/h 15 km/h 74 % 0 mm
23:25 -6.2 °C -10.7 °C 34327.3 hPa West 5.1 km/h 5.1 km/h 60 % 0 mm
23:28 -5.1 °C -7.8 °C 34327.3 hPa ENE 9 km/h 9 km/h 74 % 0 mm
23:33 -5.2 °C -7.9 °C 34327.3 hPa ENE 6.8 km/h 6.8 km/h 74 % 0 mm
23:35 -6.2 °C -10.8 °C 34327.3 hPa West 5.1 km/h 10.3 km/h 59 % 0 mm
23:38 -5.2 °C -7.9 °C 34327.3 hPa ENE 6 km/h 6 km/h 74 % 0 mm
23:43 -5.2 °C -7.9 °C 34327.3 hPa East 8 km/h 8 km/h 74 % 0 mm
23:45 -6.3 °C -10.9 °C 34327.3 hPa West 2.6 km/h 10.3 km/h 59 % 0 mm
23:48 -5.2 °C -7.9 °C 34327.3 hPa NE 9 km/h 9 km/h 74 % 0 mm
23:53 -5.3 °C -8 °C 34327.3 hPa NNE 11.9 km/h 11.9 km/h 74 % 0 mm
23:55 -6.4 °C -11.2 °C 34327.3 hPa West 5.1 km/h 7.7 km/h 58 % 0 mm
23:58 -5.3 °C -8 °C 34327.3 hPa East 9 km/h 9 km/h 74 % 0 mm
Meteo Sesrovires
Elogis d' Weather Underground - 1.5 mb

Guio original per  Jim McMurry - jmcmurry@mwt.net Adaptat per a la plantilla per  Wim van der Kuil - Leuven-Template.eu

Trobareu la nostra informacio del temps tambe a:

Weather Underground

AWEKAS